createdAt,value
2022-10-24T00:01:14.830Z,12.90
2022-10-24T00:03:41.609Z,12.90
2022-10-24T00:06:10.162Z,12.90
2022-10-24T00:08:39.240Z,13.00
2022-10-24T00:11:17.421Z,13.00
2022-10-24T00:13:44.755Z,13.00
2022-10-24T00:16:12.131Z,13.00
2022-10-24T00:18:38.883Z,13.00
2022-10-24T00:21:06.093Z,13.00
2022-10-24T00:23:35.252Z,13.00
2022-10-24T00:26:02.248Z,12.90
2022-10-24T00:28:32.880Z,12.90
2022-10-24T00:31:01.263Z,12.90
2022-10-24T00:33:28.335Z,12.90
2022-10-24T00:35:56.003Z,12.90
2022-10-24T00:38:31.757Z,12.90
2022-10-24T00:40:59.306Z,12.80
2022-10-24T00:43:27.339Z,12.80
2022-10-24T00:45:55.394Z,12.70
2022-10-24T00:48:35.033Z,12.80
2022-10-24T00:51:14.471Z,12.70
2022-10-24T00:53:44.992Z,12.60
2022-10-24T00:56:14.741Z,12.60
2022-10-24T00:58:43.521Z,12.60
2022-10-24T01:01:12.775Z,12.60
2022-10-24T01:03:41.130Z,12.60
2022-10-24T01:06:40.136Z,12.50
2022-10-24T01:09:35.785Z,12.50
2022-10-24T01:12:20.168Z,12.50
2022-10-24T01:15:21.877Z,12.50
2022-10-24T01:18:15.661Z,12.50
2022-10-24T01:21:00.388Z,12.50
2022-10-24T01:24:09.733Z,12.50
2022-10-24T01:26:55.771Z,12.50
2022-10-24T01:29:45.902Z,12.50
2022-10-24T01:32:30.930Z,12.60
2022-10-24T01:35:03.485Z,12.50
2022-10-24T01:37:58.399Z,12.60
2022-10-24T01:40:47.463Z,12.60
2022-10-24T01:43:21.581Z,12.60
2022-10-24T01:45:58.615Z,12.60
2022-10-24T01:48:29.569Z,12.70
2022-10-24T01:51:00.036Z,12.60
2022-10-24T01:53:30.027Z,12.60
2022-10-24T01:55:57.383Z,12.60
2022-10-24T01:58:24.485Z,12.60
2022-10-24T02:00:54.698Z,12.60
2022-10-24T02:03:38.664Z,12.60
2022-10-24T02:06:39.703Z,12.50
2022-10-24T02:09:15.191Z,12.50
2022-10-24T02:11:43.734Z,12.50
2022-10-24T02:14:25.481Z,12.40
2022-10-24T02:16:52.454Z,12.40
2022-10-24T02:19:19.457Z,12.40
2022-10-24T02:22:19.004Z,12.30
2022-10-24T02:25:19.388Z,12.30
2022-10-24T02:28:12.957Z,12.30
2022-10-24T02:30:52.527Z,12.20
2022-10-24T02:33:19.532Z,12.20
2022-10-24T02:35:48.080Z,12.20
2022-10-24T02:38:49.094Z,12.20
2022-10-24T02:41:22.142Z,12.10
2022-10-24T02:43:50.768Z,12.10
2022-10-24T02:46:19.564Z,12.10
2022-10-24T02:48:51.463Z,12.10
2022-10-24T02:51:21.299Z,12.00
2022-10-24T02:53:47.957Z,12.00
2022-10-24T02:56:14.604Z,12.00
2022-10-24T02:58:41.181Z,12.00
2022-10-24T03:01:07.862Z,12.00
2022-10-24T03:03:34.502Z,12.00
2022-10-24T03:06:01.200Z,12.00
2022-10-24T03:08:27.891Z,11.90
2022-10-24T03:10:54.517Z,11.90
2022-10-24T03:13:21.113Z,11.90
2022-10-24T03:18:19.309Z,11.90
2022-10-24T03:20:45.969Z,11.90
2022-10-24T03:23:13.367Z,11.90
2022-10-24T03:25:39.961Z,11.90
2022-10-24T03:28:07.146Z,11.80
2022-10-24T03:30:34.930Z,11.80
2022-10-24T03:33:01.552Z,11.80
2022-10-24T03:35:28.218Z,11.80
2022-10-24T03:37:54.843Z,11.80
2022-10-24T03:40:21.472Z,11.80
2022-10-24T03:42:48.364Z,11.80
2022-10-24T03:45:15.164Z,11.80
2022-10-24T03:47:41.773Z,11.80
2022-10-24T03:50:08.885Z,11.70
2022-10-24T03:52:35.514Z,11.70
2022-10-24T03:55:02.178Z,11.70
2022-10-24T03:57:28.803Z,11.70
2022-10-24T03:59:55.456Z,11.70
2022-10-24T04:02:22.090Z,11.70
2022-10-24T04:04:48.708Z,11.70
2022-10-24T04:07:15.349Z,11.60
2022-10-24T04:09:41.994Z,11.60
2022-10-24T04:12:08.634Z,11.60
2022-10-24T04:14:35.308Z,11.70
2022-10-24T04:17:01.945Z,11.60
2022-10-24T04:19:28.542Z,11.70
2022-10-24T04:21:55.384Z,11.60
2022-10-24T04:24:25.205Z,11.70
2022-10-24T04:26:52.869Z,11.60
2022-10-24T04:29:22.604Z,11.60
2022-10-24T04:31:52.555Z,11.60
2022-10-24T04:34:19.954Z,11.60
2022-10-24T04:36:50.551Z,11.60
2022-10-24T04:39:19.470Z,11.60
2022-10-24T04:41:47.640Z,11.60
2022-10-24T04:44:19.189Z,11.60
2022-10-24T04:46:50.612Z,11.60
2022-10-24T04:49:19.926Z,11.60
2022-10-24T04:51:46.558Z,11.60
2022-10-24T04:54:13.302Z,11.50
2022-10-24T04:56:39.933Z,11.50
2022-10-24T04:59:06.767Z,11.50
2022-10-24T05:01:33.448Z,11.50
2022-10-24T05:06:32.907Z,11.50
2022-10-24T05:08:59.534Z,11.50
2022-10-24T05:11:26.344Z,11.50
2022-10-24T05:13:54.491Z,11.50
2022-10-24T05:16:33.430Z,11.50
2022-10-24T05:19:01.369Z,11.50
2022-10-24T05:21:28.371Z,11.50
2022-10-24T05:23:58.180Z,11.50
2022-10-24T05:26:27.216Z,11.50
2022-10-24T05:28:59.136Z,11.50
2022-10-24T05:31:28.167Z,11.50
2022-10-24T05:33:55.109Z,11.50
2022-10-24T05:36:24.364Z,11.50
2022-10-24T05:39:03.734Z,11.50
2022-10-24T05:41:31.552Z,11.50
2022-10-24T05:43:58.839Z,11.50
2022-10-24T05:46:26.738Z,11.50
2022-10-24T05:48:54.623Z,11.50
2022-10-24T05:51:21.299Z,11.50
2022-10-24T05:53:48.110Z,11.60
2022-10-24T05:56:14.843Z,11.50
2022-10-24T05:58:41.484Z,11.60
2022-10-24T06:01:08.187Z,11.60
2022-10-24T06:03:35.079Z,11.60
2022-10-24T06:06:07.281Z,11.60
2022-10-24T06:08:35.218Z,11.60
2022-10-24T06:11:08.147Z,11.60
2022-10-24T06:13:36.213Z,11.60
2022-10-24T06:16:05.269Z,11.60
2022-10-24T06:18:32.280Z,11.60
2022-10-24T06:21:04.046Z,11.60
2022-10-24T06:23:31.112Z,11.60
2022-10-24T06:25:57.860Z,11.60
2022-10-24T06:28:24.906Z,11.70
2022-10-24T06:30:52.683Z,11.70
2022-10-24T06:33:19.466Z,11.70
2022-10-24T06:35:46.318Z,11.70
2022-10-24T06:38:12.958Z,11.70
2022-10-24T06:40:39.579Z,11.70
2022-10-24T06:43:07.479Z,11.80
2022-10-24T06:45:37.059Z,11.80
2022-10-24T06:48:04.630Z,11.90
2022-10-24T06:50:32.415Z,11.90
2022-10-24T06:53:00.600Z,11.90
2022-10-24T06:55:28.584Z,12.00
2022-10-24T06:57:55.253Z,12.00
2022-10-24T07:00:23.458Z,12.00
2022-10-24T07:02:50.249Z,12.10
2022-10-24T07:05:18.569Z,12.10
2022-10-24T07:07:50.080Z,12.10
2022-10-24T07:10:16.744Z,12.10
2022-10-24T07:12:48.574Z,12.20
2022-10-24T07:15:15.404Z,12.20
2022-10-24T07:17:43.805Z,12.20
2022-10-24T07:20:11.877Z,12.20
2022-10-24T07:22:38.761Z,12.30
2022-10-24T07:25:06.653Z,12.30
2022-10-24T07:27:33.697Z,12.40
2022-10-24T07:30:03.203Z,12.40
2022-10-24T07:32:32.440Z,12.50
2022-10-24T07:34:59.038Z,12.50
2022-10-24T07:39:57.185Z,12.60
2022-10-24T07:42:23.782Z,12.70
2022-10-24T07:44:50.503Z,12.80
2022-10-24T07:47:17.150Z,12.80
2022-10-24T07:49:43.737Z,12.90
2022-10-24T07:52:10.504Z,13.00
2022-10-24T07:54:38.456Z,13.10
2022-10-24T07:57:05.366Z,13.10
2022-10-24T07:59:41.859Z,13.20
2022-10-24T08:02:11.893Z,13.20
2022-10-24T08:04:39.028Z,13.20
2022-10-24T08:07:06.152Z,13.30
2022-10-24T08:09:36.735Z,13.40
2022-10-24T08:12:04.828Z,13.50
2022-10-24T08:14:32.956Z,13.50
2022-10-24T08:17:02.999Z,13.60
2022-10-24T08:19:31.297Z,13.60
2022-10-24T08:21:59.571Z,13.70
2022-10-24T08:24:27.149Z,13.70
2022-10-24T08:26:56.887Z,13.80
2022-10-24T08:29:25.686Z,13.90
2022-10-24T08:31:55.153Z,14.00
2022-10-24T08:34:22.890Z,14.00
2022-10-24T08:36:52.811Z,14.00
2022-10-24T08:39:20.259Z,14.10
2022-10-24T08:41:55.557Z,14.20
2022-10-24T08:44:35.881Z,14.30
2022-10-24T08:50:27.193Z,14.40
2022-10-24T08:53:11.183Z,14.50
2022-10-24T08:55:49.642Z,14.60
2022-10-24T08:58:56.353Z,14.60
2022-10-24T09:01:44.866Z,14.70
2022-10-24T09:04:14.915Z,14.80
2022-10-24T09:06:42.311Z,14.80
2022-10-24T09:09:08.943Z,14.90
2022-10-24T09:11:48.394Z,14.90
2022-10-24T09:14:22.843Z,15.00
2022-10-24T09:17:02.809Z,15.00
2022-10-24T09:19:32.107Z,15.10
2022-10-24T09:21:59.894Z,15.10
2022-10-24T09:24:47.009Z,15.20
2022-10-24T09:27:34.140Z,15.30
2022-10-24T09:30:02.110Z,15.30
2022-10-24T09:32:32.385Z,15.30
2022-10-24T09:35:11.867Z,15.30
2022-10-24T09:37:58.911Z,15.40
2022-10-24T09:40:29.764Z,15.40
2022-10-24T09:43:02.376Z,15.40
2022-10-24T09:45:58.031Z,15.40
2022-10-24T09:48:45.660Z,15.50
2022-10-24T09:51:33.214Z,15.60
2022-10-24T09:54:02.086Z,15.60
2022-10-24T09:56:41.203Z,15.60
2022-10-24T09:59:34.157Z,15.70
2022-10-24T10:02:27.470Z,15.80
2022-10-24T10:05:06.439Z,15.90
2022-10-24T10:07:42.271Z,15.90
2022-10-24T10:10:29.495Z,15.90
2022-10-24T10:13:24.575Z,16.00
2022-10-24T10:16:03.509Z,16.10
2022-10-24T10:18:34.740Z,16.10
2022-10-24T10:21:10.616Z,16.10
2022-10-24T10:23:46.069Z,16.20
2022-10-24T10:26:26.957Z,16.20
2022-10-24T10:29:04.811Z,16.30
2022-10-24T10:31:43.641Z,16.40
2022-10-24T10:34:22.095Z,16.40
2022-10-24T10:36:51.433Z,16.40
2022-10-24T10:39:24.358Z,16.40
2022-10-24T10:42:21.718Z,16.50
2022-10-24T10:45:14.838Z,16.50
2022-10-24T10:47:56.375Z,16.50
2022-10-24T10:50:54.227Z,16.50
2022-10-24T10:53:36.422Z,16.50
2022-10-24T10:56:39.612Z,16.50
2022-10-24T10:59:33.329Z,16.50
2022-10-24T11:02:33.123Z,16.60
2022-10-24T11:05:43.520Z,16.60
2022-10-24T11:08:44.072Z,16.60
2022-10-24T11:11:32.115Z,16.60
2022-10-24T11:14:03.655Z,16.60
2022-10-24T11:16:35.631Z,16.60
2022-10-24T11:19:20.957Z,16.70
2022-10-24T11:21:49.920Z,16.70
2022-10-24T11:24:21.722Z,16.80
2022-10-24T11:27:09.099Z,16.80
2022-10-24T11:29:41.927Z,16.90
2022-10-24T11:32:36.935Z,16.80
2022-10-24T11:35:33.312Z,16.90
2022-10-24T11:38:16.037Z,16.90
2022-10-24T11:40:46.024Z,17.00
2022-10-24T11:43:19.775Z,17.00
2022-10-24T11:46:01.603Z,17.00
2022-10-24T11:48:39.442Z,17.10
2022-10-24T11:51:32.850Z,17.00
2022-10-24T11:54:25.071Z,17.00
2022-10-24T11:57:19.253Z,17.00
2022-10-24T11:59:46.134Z,17.10
2022-10-24T12:02:36.967Z,17.10
2022-10-24T12:05:22.573Z,17.10
2022-10-24T12:08:07.898Z,17.10
2022-10-24T12:11:10.512Z,17.10
2022-10-24T12:13:59.189Z,17.10
2022-10-24T12:17:01.397Z,17.10
2022-10-24T12:19:28.705Z,17.10
2022-10-24T12:21:58.838Z,17.10
2022-10-24T12:24:36.512Z,17.20
2022-10-24T12:27:13.895Z,17.30
2022-10-24T12:30:00.172Z,17.30
2022-10-24T12:32:45.250Z,17.30
2022-10-24T12:35:31.393Z,17.30
2022-10-24T12:37:58.779Z,17.30
2022-10-24T12:40:50.413Z,17.20
2022-10-24T12:43:35.349Z,17.30
2022-10-24T12:46:24.924Z,17.30
2022-10-24T12:49:00.374Z,17.30
2022-10-24T12:51:31.678Z,17.40
2022-10-24T12:54:17.835Z,17.40
2022-10-24T12:56:53.223Z,17.50
2022-10-24T12:59:30.425Z,17.40
2022-10-24T13:02:15.711Z,17.40
2022-10-24T13:05:04.344Z,17.50
2022-10-24T13:08:01.713Z,17.60
2022-10-24T13:10:33.839Z,17.80
2022-10-24T13:13:38.051Z,17.90
2022-10-24T13:16:53.529Z,18.00
2022-10-24T13:19:21.608Z,18.00
2022-10-24T13:21:59.104Z,18.00
2022-10-24T13:24:39.064Z,18.00
2022-10-24T13:27:12.826Z,17.90
2022-10-24T13:29:39.808Z,17.90
2022-10-24T13:32:06.464Z,18.00
2022-10-24T13:34:51.432Z,18.10
2022-10-24T13:37:25.649Z,18.20
2022-10-24T13:39:56.565Z,18.10
2022-10-24T13:42:43.539Z,18.10
2022-10-24T13:45:32.148Z,18.10
2022-10-24T13:48:12.089Z,18.10
2022-10-24T13:51:02.668Z,18.10
2022-10-24T13:53:32.514Z,18.00
2022-10-24T13:56:03.706Z,18.00
2022-10-24T13:58:41.046Z,18.00
2022-10-24T14:01:23.863Z,18.00
2022-10-24T14:03:52.289Z,18.00
2022-10-24T14:06:30.604Z,17.90
2022-10-24T14:09:06.919Z,17.90
2022-10-24T14:11:34.496Z,17.80
2022-10-24T14:14:06.493Z,17.80
2022-10-24T14:16:35.488Z,17.80
2022-10-24T14:19:37.327Z,17.70
2022-10-24T14:22:18.948Z,17.60
2022-10-24T14:24:46.166Z,17.50
2022-10-24T14:27:14.049Z,17.50
2022-10-24T14:29:52.307Z,17.50
2022-10-24T14:32:19.172Z,17.50
2022-10-24T14:34:48.077Z,17.50
2022-10-24T14:37:19.350Z,17.60
2022-10-24T14:39:46.152Z,17.60
2022-10-24T14:42:16.733Z,17.60
2022-10-24T14:44:44.246Z,17.60
2022-10-24T14:47:32.186Z,17.50
2022-10-24T14:49:58.943Z,17.50
2022-10-24T14:52:31.333Z,17.40
2022-10-24T14:55:07.743Z,17.50
2022-10-24T14:57:36.629Z,17.60
2022-10-24T15:00:07.673Z,17.50
2022-10-24T15:02:42.927Z,17.50
2022-10-24T15:05:19.252Z,17.40
2022-10-24T15:08:16.761Z,17.40
2022-10-24T15:10:43.265Z,17.30
2022-10-24T15:13:22.851Z,17.20
2022-10-24T15:15:49.438Z,17.20
2022-10-24T15:18:40.919Z,17.20
2022-10-24T15:21:16.259Z,17.10
2022-10-24T15:23:55.740Z,17.00
2022-10-24T15:26:28.861Z,17.00
2022-10-24T15:29:02.663Z,17.00
2022-10-24T15:31:30.600Z,16.90
2022-10-24T15:33:57.296Z,16.80
2022-10-24T15:36:31.613Z,16.80
2022-10-24T15:39:12.235Z,16.70
2022-10-24T15:41:39.971Z,16.70
2022-10-24T15:44:18.075Z,16.70
2022-10-24T15:46:45.924Z,16.60
2022-10-24T15:49:13.344Z,16.60
2022-10-24T15:51:45.878Z,16.50
2022-10-24T15:54:17.438Z,16.50
2022-10-24T15:56:44.316Z,16.40
2022-10-24T15:59:10.943Z,16.40
2022-10-24T16:01:45.064Z,16.40
2022-10-24T16:04:11.831Z,16.40
2022-10-24T16:06:38.837Z,16.40
2022-10-24T16:09:12.828Z,16.30
2022-10-24T16:11:39.474Z,16.30
2022-10-24T16:14:12.994Z,16.30
2022-10-24T16:16:39.689Z,16.20
2022-10-24T16:19:06.665Z,16.30
2022-10-24T16:21:33.324Z,16.20
2022-10-24T16:24:00.452Z,16.20
2022-10-24T16:26:27.381Z,16.20
2022-10-24T16:28:54.108Z,16.20
2022-10-24T16:31:20.846Z,16.20
2022-10-24T16:33:47.765Z,16.20
2022-10-24T16:36:18.390Z,16.10
2022-10-24T16:38:47.603Z,16.10
2022-10-24T16:41:16.442Z,16.10
2022-10-24T16:43:44.226Z,16.10
2022-10-24T16:46:19.035Z,16.10
2022-10-24T16:48:46.371Z,16.10
2022-10-24T16:51:26.443Z,16.10
2022-10-24T16:53:53.206Z,16.00
2022-10-24T16:56:29.524Z,16.00
2022-10-24T16:58:56.329Z,15.90
2022-10-24T17:01:23.223Z,15.90
2022-10-24T17:04:12.978Z,15.90
2022-10-24T17:06:39.723Z,15.90
2022-10-24T17:09:06.427Z,15.80
2022-10-24T17:11:49.786Z,15.80
2022-10-24T17:14:16.504Z,15.80
2022-10-24T17:16:44.821Z,15.70
2022-10-24T17:19:16.700Z,15.70
2022-10-24T17:21:46.651Z,15.70
2022-10-24T17:24:14.658Z,15.70
2022-10-24T17:26:41.785Z,15.70
2022-10-24T17:29:33.358Z,15.60
2022-10-24T17:32:02.115Z,15.60
2022-10-24T17:34:35.470Z,15.60
2022-10-24T17:37:40.900Z,15.60
2022-10-24T17:40:20.525Z,15.60
2022-10-24T17:42:48.319Z,15.50
2022-10-24T17:45:18.894Z,15.50
2022-10-24T17:50:18.887Z,15.40
2022-10-24T17:52:45.841Z,15.40
2022-10-24T17:55:48.290Z,15.40
2022-10-24T17:58:10.189Z,15.30
2022-10-24T18:00:37.367Z,15.30
2022-10-24T18:03:04.568Z,15.30
2022-10-24T18:05:31.230Z,15.30
2022-10-24T18:07:57.961Z,15.30
2022-10-24T18:10:25.029Z,15.30
2022-10-24T18:12:55.575Z,15.20
2022-10-24T18:15:25.840Z,15.20
2022-10-24T18:17:52.685Z,15.20
2022-10-24T18:20:19.756Z,15.20
2022-10-24T18:22:46.710Z,15.10
2022-10-24T18:25:17.510Z,15.10
2022-10-24T18:27:47.149Z,15.10
2022-10-24T18:30:14.195Z,15.10
2022-10-24T18:32:40.938Z,15.10
2022-10-24T18:35:08.225Z,15.10
2022-10-24T18:37:35.054Z,15.00
2022-10-24T18:40:06.320Z,15.00
2022-10-24T18:42:57.993Z,15.00
2022-10-24T18:45:26.793Z,15.00
2022-10-24T18:47:54.492Z,15.00
2022-10-24T18:50:25.607Z,14.90
2022-10-24T18:53:06.355Z,14.90
2022-10-24T18:55:35.491Z,14.90
2022-10-24T18:58:03.148Z,14.90
2022-10-24T19:00:33.029Z,14.90
2022-10-24T19:03:31.301Z,14.90
2022-10-24T19:06:34.077Z,14.90
2022-10-24T19:09:01.026Z,14.90
2022-10-24T19:11:27.807Z,14.90
2022-10-24T19:13:54.742Z,14.90
2022-10-24T19:16:49.551Z,14.90
2022-10-24T19:19:17.734Z,14.90
2022-10-24T19:21:46.481Z,14.80
2022-10-24T19:24:16.315Z,14.80
2022-10-24T19:26:43.287Z,14.90
2022-10-24T19:29:11.326Z,14.90
2022-10-24T19:31:38.177Z,14.80
2022-10-24T19:34:15.437Z,14.80
2022-10-24T19:36:43.184Z,14.80
2022-10-24T19:39:09.830Z,14.80
2022-10-24T19:41:37.602Z,14.80
2022-10-24T19:44:04.958Z,14.80
2022-10-24T19:46:33.184Z,14.80
2022-10-24T19:48:59.888Z,14.80
2022-10-24T19:51:26.680Z,14.80
2022-10-24T19:53:54.715Z,14.70
2022-10-24T19:56:25.099Z,14.70
2022-10-24T19:58:55.091Z,14.70
2022-10-24T20:01:24.699Z,14.70
2022-10-24T20:03:53.044Z,14.70
2022-10-24T20:06:19.965Z,14.70
2022-10-24T20:08:48.716Z,14.70
2022-10-24T20:11:18.630Z,14.70
2022-10-24T20:13:50.168Z,14.70
2022-10-24T20:16:17.133Z,14.60
2022-10-24T20:18:45.033Z,14.70
2022-10-24T20:21:18.946Z,14.70
2022-10-24T20:23:48.920Z,14.70
2022-10-24T20:26:24.422Z,14.70
2022-10-24T20:29:03.951Z,14.60
2022-10-24T20:31:37.683Z,14.60
2022-10-24T20:34:08.408Z,14.60
2022-10-24T20:36:38.981Z,14.60
2022-10-24T20:39:08.219Z,14.60
2022-10-24T20:41:36.005Z,14.60
2022-10-24T20:44:12.971Z,14.50
2022-10-24T20:46:40.744Z,14.50
2022-10-24T20:49:10.336Z,14.50
2022-10-24T20:51:41.073Z,14.50
2022-10-24T20:54:10.273Z,14.50
2022-10-24T20:56:42.294Z,14.40
2022-10-24T20:59:15.206Z,14.50
2022-10-24T21:01:45.403Z,14.40
2022-10-24T21:04:14.697Z,14.40
2022-10-24T21:06:45.173Z,14.40
2022-10-24T21:09:11.814Z,14.40
2022-10-24T21:11:41.792Z,14.40
2022-10-24T21:14:11.853Z,14.40
2022-10-24T21:16:39.822Z,14.30
2022-10-24T21:19:06.444Z,14.30
2022-10-24T21:21:33.342Z,14.30
2022-10-24T21:24:10.752Z,14.20
2022-10-24T21:26:38.898Z,14.20
2022-10-24T21:29:31.552Z,14.20
2022-10-24T21:31:53.703Z,14.10
2022-10-24T21:34:23.053Z,14.10
2022-10-24T21:36:49.871Z,14.10
2022-10-24T21:39:17.298Z,14.10
2022-10-24T21:41:44.730Z,14.00
2022-10-24T21:44:13.197Z,14.00
2022-10-24T21:46:42.615Z,14.00
2022-10-24T21:49:10.987Z,14.00
2022-10-24T21:51:41.559Z,13.90
2022-10-24T21:54:19.525Z,13.90
2022-10-24T21:56:46.612Z,13.90
2022-10-24T21:59:16.976Z,13.90
2022-10-24T22:01:46.858Z,13.90
2022-10-24T22:04:16.335Z,13.90
2022-10-24T22:06:44.753Z,13.90
2022-10-24T22:09:14.651Z,13.90
2022-10-24T22:11:43.573Z,13.80
2022-10-24T22:14:13.018Z,13.90
2022-10-24T22:16:41.564Z,13.80
2022-10-24T22:19:17.439Z,13.80
2022-10-24T22:21:53.920Z,13.80
2022-10-24T22:24:23.549Z,13.80
2022-10-24T22:26:52.263Z,13.80
2022-10-24T22:29:22.337Z,13.80
2022-10-24T22:31:50.444Z,13.90
2022-10-24T22:34:23.036Z,13.80
2022-10-24T22:37:05.937Z,13.90
2022-10-24T22:39:37.314Z,13.90
2022-10-24T22:42:09.115Z,13.90
2022-10-24T22:44:37.499Z,13.90
2022-10-24T22:47:26.876Z,13.90
2022-10-24T22:50:02.413Z,13.90
2022-10-24T22:52:29.478Z,13.80
2022-10-24T22:54:56.378Z,13.70
2022-10-24T22:57:23.307Z,13.70
2022-10-24T22:59:50.180Z,13.70
2022-10-24T23:02:43.977Z,13.60
2022-10-24T23:05:28.890Z,13.60
2022-10-24T23:08:05.421Z,13.50
2022-10-24T23:10:32.453Z,13.50
2022-10-24T23:12:59.595Z,13.50
2022-10-24T23:15:26.641Z,13.50
2022-10-24T23:17:53.608Z,13.50
2022-10-24T23:21:22.992Z,13.50
2022-10-24T23:23:49.843Z,13.40
2022-10-24T23:26:32.494Z,13.40
2022-10-24T23:29:25.421Z,13.40
2022-10-24T23:31:52.294Z,13.40
2022-10-24T23:34:19.226Z,13.40
2022-10-24T23:36:46.027Z,13.30
2022-10-24T23:39:13.912Z,13.30
2022-10-24T23:41:41.030Z,13.30
2022-10-24T23:44:10.763Z,13.30
2022-10-24T23:46:40.915Z,13.20
2022-10-24T23:49:24.640Z,13.30
2022-10-24T23:52:05.324Z,13.20
2022-10-24T23:54:33.563Z,13.20
2022-10-24T23:57:01.257Z,13.20
2022-10-24T23:59:31.800Z,13.10
